Time;durP1;ratioP1;P1;durP2;ratioP2;P2;SDS_P1;SDS_P2;PMS_P1;PMS_P2;Temp;Humidity;BMP_temperature;BMP_pressure;BME280_temperature;BME280_humidity;BME280_pressure;Samples;Min_cycle;Max_cycle;Signal;HPM_P1;HPM_P2
2023/07/11 00:00:52;;;;;;;6.72;1.70;;;19.90;97.20;;;;;;5032915;28;20484;-53
2023/07/11 00:03:19;;;;;;;9.00;1.98;;;19.90;97.20;;;;;;5033796;28;20037;-50
2023/07/11 00:05:46;;;;;;;7.80;2.10;;;19.90;97.30;;;;;;5033794;28;20049;-49
2023/07/11 00:08:13;;;;;;;7.40;1.73;;;19.90;97.30;;;;;;5033827;28;20037;-50
2023/07/11 00:10:40;;;;;;;6.35;1.77;;;19.90;97.30;;;;;;5033573;28;20044;-50
2023/07/11 00:13:06;;;;;;;9.13;2.45;;;19.80;97.30;;;;;;5033560;28;20037;-48
2023/07/11 00:15:33;;;;;;;7.82;1.98;;;19.80;97.40;;;;;;5033711;28;20049;-53
2023/07/11 00:18:00;;;;;;;8.15;2.17;;;19.80;97.40;;;;;;5033492;28;20033;-51
2023/07/11 00:20:27;;;;;;;6.53;1.98;;;19.80;97.50;;;;;;5033402;28;20385;-46
2023/07/11 00:22:54;;;;;;;5.07;1.77;;;19.70;97.40;;;;;;5033384;28;20050;-49
2023/07/11 00:25:21;;;;;;;10.30;2.10;;;19.70;97.50;;;;;;5033616;28;20041;-46
2023/07/11 00:27:48;;;;;;;7.00;1.80;;;19.70;97.60;;;;;;5033442;28;20377;-48
2023/07/11 00:30:14;;;;;;;7.50;1.80;;;19.60;97.60;;;;;;5033226;28;20076;-49
2023/07/11 00:32:41;;;;;;;5.25;1.63;;;19.60;97.70;;;;;;5013347;28;20511;-55
2023/07/11 00:35:08;;;;;;;7.03;1.80;;;19.60;97.70;;;;;;5012924;28;20111;-49
2023/07/11 00:37:35;;;;;;;7.72;1.65;;;19.60;97.90;;;;;;5012776;28;20042;-51
2023/07/11 00:40:02;;;;;;;6.80;1.80;;;19.50;98.00;;;;;;5030437;28;20136;-51
2023/07/11 00:42:29;;;;;;;8.75;1.98;;;19.60;98.00;;;;;;5031904;28;20050;-52
2023/07/11 00:44:56;;;;;;;9.00;2.20;;;19.50;98.10;;;;;;5033171;28;20076;-51
2023/07/11 00:47:23;;;;;;;6.95;1.98;;;19.50;98.10;;;;;;5033389;28;20108;-50
2023/07/11 00:49:50;;;;;;;5.88;1.80;;;19.50;98.10;;;;;;5032943;28;20084;-48
2023/07/11 00:52:17;;;;;;;7.95;2.10;;;19.60;98.20;;;;;;5033100;28;20048;-47
2023/07/11 00:54:43;;;;;;;6.03;1.85;;;19.60;98.60;;;;;;5031788;28;20041;-50
2023/07/11 00:57:10;;;;;;;8.60;2.00;;;19.60;98.30;;;;;;5031855;28;20389;-51
2023/07/11 00:59:37;;;;;;;9.18;1.80;;;19.50;98.40;;;;;;5033029;28;20416;-51
2023/07/11 01:02:04;;;;;;;7.95;1.95;;;19.60;98.40;;;;;;5032375;28;20041;-49
2023/07/11 01:04:32;;;;;;;6.68;2.08;;;19.60;98.40;;;;;;5031776;28;20078;-49
2023/07/11 01:06:59;;;;;;;10.20;2.05;;;19.60;98.50;;;;;;5031747;28;20049;-48
2023/07/11 01:09:26;;;;;;;6.82;1.83;;;19.60;98.40;;;;;;5032760;28;20038;-52
2023/07/11 01:11:53;;;;;;;10.30;1.85;;;19.60;98.40;;;;;;5033136;28;20038;-52
2023/07/11 01:14:19;;;;;;;7.85;2.03;;;19.60;98.40;;;;;;5035911;28;20042;-47
2023/07/11 01:16:46;;;;;;;9.77;2.42;;;19.60;98.50;;;;;;5037072;28;20103;-50
2023/07/11 01:19:13;;;;;;;6.20;1.70;;;19.60;98.50;;;;;;5036829;28;20455;-46
2023/07/11 01:21:40;;;;;;;7.45;1.80;;;19.60;98.60;;;;;;5018963;28;20037;-50
2023/07/11 01:24:07;;;;;;;6.47;1.90;;;19.60;98.70;;;;;;5036646;28;20038;-48
2023/07/11 01:26:33;;;;;;;10.43;2.20;;;19.60;98.60;;;;;;5036807;28;20036;-48
2023/07/11 01:29:00;;;;;;;8.95;2.10;;;19.60;98.70;;;;;;5035351;28;20050;-49
2023/07/11 01:31:27;;;;;;;9.18;1.67;;;19.60;98.60;;;;;;5036584;28;20040;-48
2023/07/11 01:33:54;;;;;;;8.07;1.90;;;19.70;98.70;;;;;;5036465;28;20451;-49
2023/07/11 01:36:20;;;;;;;6.80;1.80;;;19.70;98.70;;;;;;5035467;28;20377;-50
2023/07/11 01:38:48;;;;;;;7.57;2.10;;;19.70;98.70;;;;;;5035167;28;20051;-50
2023/07/11 01:41:15;;;;;;;6.82;2.13;;;19.70;98.70;;;;;;5035405;28;20060;-50
2023/07/11 01:43:42;;;;;;;8.80;2.50;;;19.70;98.80;;;;;;5035191;28;20140;-49
2023/07/11 01:46:09;;;;;;;6.18;1.83;;;19.70;98.90;;;;;;5036411;28;20053;-52
2023/07/11 01:48:36;;;;;;;5.10;1.67;;;19.70;98.80;;;;;;5036177;28;20046;-53
2023/07/11 01:51:03;;;;;;;7.20;2.03;;;19.70;98.90;;;;;;5034954;28;20045;-51
2023/07/11 01:53:30;;;;;;;9.07;2.17;;;19.70;99.00;;;;;;5035634;28;20042;-49
2023/07/11 01:55:57;;;;;;;8.00;1.85;;;19.70;99.20;;;;;;5036423;28;20043;-50
2023/07/11 01:58:25;;;;;;;7.50;2.08;;;19.80;99.00;;;;;;5034597;28;20076;-51
2023/07/11 02:00:52;;;;;;;7.65;2.00;;;19.80;99.00;;;;;;5034764;28;20049;-53
2023/07/11 02:03:19;;;;;;;9.88;2.13;;;19.90;98.90;;;;;;5035050;28;20048;-49
2023/07/11 02:05:46;;;;;;;9.23;2.00;;;19.90;99.00;;;;;;5034898;28;20037;-48
2023/07/11 02:08:13;;;;;;;6.65;1.98;;;19.90;98.90;;;;;;5035956;28;20046;-46
2023/07/11 02:10:40;;;;;;;11.90;2.08;;;19.90;98.90;;;;;;5035808;28;20073;-48
2023/07/11 02:13:07;;;;;;;7.43;2.15;;;19.90;98.90;;;;;;5035820;28;20052;-49
2023/07/11 02:15:38;;;;;;;8.25;2.10;;;20.00;98.90;;;;;;5034751;28;20049;-47
2023/07/11 02:18:05;;;;;;;7.30;2.17;;;20.00;98.90;;;;;;5035777;28;20060;-47
2023/07/11 02:20:32;;;;;;;7.63;1.83;;;20.00;98.80;;;;;;5035765;28;20132;-50
2023/07/11 02:22:59;;;;;;;5.65;1.88;;;20.00;98.80;;;;;;5035473;28;20485;-53
2023/07/11 02:25:26;;;;;;;7.00;1.70;;;20.00;98.80;;;;;;5035295;28;20045;-49
2023/07/11 02:27:53;;;;;;;5.75;1.80;;;20.10;98.90;;;;;;5035471;28;20064;-47
2023/07/11 02:30:20;;;;;;;7.22;2.20;;;20.10;99.00;;;;;;5035766;28;20038;-46
2023/07/11 02:32:46;;;;;;;13.95;2.35;;;20.10;98.80;;;;;;5035316;28;20437;-47
2023/07/11 02:35:13;;;;;;;8.88;2.03;;;20.10;98.80;;;;;;5035535;28;20124;-49
2023/07/11 02:37:40;;;;;;;10.70;2.15;;;20.20;98.80;;;;;;5035543;28;20061;-51
2023/07/11 02:40:07;;;;;;;7.80;1.92;;;20.20;98.80;;;;;;5035335;28;20124;-47
2023/07/11 02:42:34;;;;;;;8.15;2.40;;;20.10;98.80;;;;;;5035182;28;20049;-46
2023/07/11 02:45:00;;;;;;;8.80;2.05;;;20.20;99.10;;;;;;5035518;28;20049;-49
2023/07/11 02:47:27;;;;;;;14.90;2.13;;;20.10;99.40;;;;;;5035187;28;20579;-52
2023/07/11 02:49:54;;;;;;;8.02;2.15;;;20.10;99.70;;;;;;5035196;28;20069;-49
2023/07/11 02:52:21;;;;;;;8.35;2.10;;;20.10;99.60;;;;;;5035155;28;20040;-51
2023/07/11 02:54:47;;;;;;;9.70;1.95;;;20.10;99.60;;;;;;5035312;28;20102;-46
2023/07/11 02:57:14;;;;;;;7.95;2.28;;;20.10;99.70;;;;;;5035294;28;20034;-47
2023/07/11 02:59:41;;;;;;;11.23;2.28;;;20.10;99.80;;;;;;5034692;28;20081;-47
2023/07/11 03:02:08;;;;;;;8.02;2.08;;;20.10;99.90;;;;;;5034680;28;20042;-50
2023/07/11 03:04:34;;;;;;;8.13;2.13;;;20.10;99.90;;;;;;5034683;28;20052;-49
2023/07/11 03:07:01;;;;;;;13.48;2.10;;;20.10;99.90;;;;;;5035132;28;20043;-46
2023/07/11 03:09:28;;;;;;;7.95;2.00;;;20.10;99.90;;;;;;5035046;28;20072;-45
2023/07/11 03:11:55;;;;;;;7.43;1.83;;;20.10;99.90;;;;;;5034688;28;20041;-48
2023/07/11 03:14:22;;;;;;;10.32;2.10;;;20.10;99.90;;;;;;5034697;28;20056;-50
2023/07/11 03:16:48;;;;;;;10.13;1.95;;;20.10;99.90;;;;;;5034800;28;20099;-46
2023/07/11 03:19:15;;;;;;;8.10;2.60;;;20.10;99.90;;;;;;5033733;28;20042;-48
2023/07/11 03:21:42;;;;;;;13.60;2.15;;;20.00;99.90;;;;;;5034609;28;20060;-47
2023/07/11 03:24:10;;;;;;;9.82;2.25;;;20.00;99.90;;;;;;5034522;28;20033;-47
2023/07/11 03:26:36;;;;;;;8.88;2.17;;;20.00;99.90;;;;;;5034394;28;20045;-48
2023/07/11 03:29:03;;;;;;;8.05;2.80;;;20.00;99.90;;;;;;5034520;28;20128;-52
2023/07/11 03:31:30;;;;;;;10.07;2.17;;;20.10;99.90;;;;;;5034385;28;20124;-48
2023/07/11 03:33:57;;;;;;;8.73;1.98;;;20.10;99.90;;;;;;5034409;28;20042;-50
2023/07/11 03:36:24;;;;;;;7.88;1.90;;;20.10;99.90;;;;;;5033705;28;20506;-50
2023/07/11 03:38:50;;;;;;;11.95;2.42;;;20.00;99.90;;;;;;5034404;28;20049;-52
2023/07/11 03:41:17;;;;;;;9.65;2.10;;;20.00;99.90;;;;;;5034400;28;20428;-48
2023/07/11 03:43:44;;;;;;;10.20;2.42;;;20.00;99.90;;;;;;5032956;28;20037;-51
2023/07/11 03:46:11;;;;;;;6.72;1.65;;;20.00;99.90;;;;;;5034271;28;20041;-50
2023/07/11 03:48:37;;;;;;;7.70;2.08;;;20.00;99.90;;;;;;5034093;28;20063;-48
2023/07/11 03:51:04;;;;;;;10.05;2.00;;;19.90;99.90;;;;;;5033969;28;20057;-51
2023/07/11 03:53:31;;;;;;;8.27;1.85;;;20.00;99.90;;;;;;5033985;28;20033;-49
2023/07/11 03:55:58;;;;;;;9.85;2.10;;;19.90;99.90;;;;;;5033837;28;20050;-48
2023/07/11 03:58:25;;;;;;;8.00;2.03;;;20.00;99.90;;;;;;5032609;28;20049;-48
2023/07/11 04:00:52;;;;;;;7.72;1.85;;;19.90;99.90;;;;;;5033486;28;20389;-46
2023/07/11 04:03:19;;;;;;;14.10;2.30;;;20.00;99.90;;;;;;5033958;28;20045;-46
2023/07/11 04:05:46;;;;;;;7.53;1.95;;;19.90;99.90;;;;;;5033845;28;20034;-46
2023/07/11 04:08:13;;;;;;;8.98;1.92;;;20.00;99.90;;;;;;5033655;28;20072;-45
2023/07/11 04:10:40;;;;;;;10.00;2.20;;;19.90;99.90;;;;;;5033770;28;20095;-49
2023/07/11 04:13:06;;;;;;;10.30;1.98;;;19.90;99.90;;;;;;5033695;28;20400;-49
2023/07/11 04:15:33;;;;;;;11.10;2.10;;;19.90;99.90;;;;;;5033620;28;20041;-49
2023/07/11 04:18:00;;;;;;;8.23;1.75;;;19.80;99.90;;;;;;5033535;28;20041;-48
2023/07/11 04:20:27;;;;;;;8.95;2.25;;;19.80;99.90;;;;;;5033608;28;20049;-49
2023/07/11 04:22:53;;;;;;;9.20;2.25;;;19.70;99.90;;;;;;5033601;28;20091;-49
2023/07/11 04:25:20;;;;;;;7.75;1.98;;;19.60;99.90;;;;;;5033392;28;20485;-48
2023/07/11 04:27:47;;;;;;;11.60;2.30;;;19.60;99.90;;;;;;5033593;28;20065;-46
2023/07/11 04:30:14;;;;;;;8.90;2.03;;;19.60;99.90;;;;;;5033431;28;20056;-50
2023/07/11 04:32:40;;;;;;;6.90;2.00;;;19.50;99.90;;;;;;5033559;28;20046;-49
2023/07/11 04:35:07;;;;;;;8.48;2.05;;;19.50;99.90;;;;;;5033543;28;20053;-45
2023/07/11 04:37:34;;;;;;;8.10;1.90;;;19.50;99.90;;;;;;5033547;28;20100;-51
2023/07/11 04:40:01;;;;;;;8.88;1.73;;;19.50;99.90;;;;;;5033329;28;20041;-46
2023/07/11 04:42:29;;;;;;;11.30;1.92;;;19.50;99.90;;;;;;5033316;28;20037;-48
2023/07/11 04:44:56;;;;;;;8.25;1.85;;;19.40;99.90;;;;;;5033522;28;20049;-50
2023/07/11 04:47:23;;;;;;;6.82;1.70;;;19.40;99.90;;;;;;5033150;28;20511;-47
2023/07/11 04:49:50;;;;;;;5.18;1.48;;;19.50;99.90;;;;;;5033296;28;20065;-50
2023/07/11 04:52:17;;;;;;;4.80;1.40;;;19.50;99.90;;;;;;5033008;28;20052;-54
2023/07/11 04:54:44;;;;;;;8.35;1.70;;;19.50;99.90;;;;;;5033146;28;20037;-46
2023/07/11 04:57:10;;;;;;;6.35;1.45;;;19.50;99.90;;;;;;5033053;28;20116;-47
2023/07/11 04:59:37;;;;;;;4.40;1.13;;;19.40;99.90;;;;;;5033208;28;20050;-49
2023/07/11 05:02:04;;;;;;;6.00;1.38;;;19.40;99.90;;;;;;5025649;28;20137;-49
2023/07/11 05:04:31;;;;;;;5.18;1.20;;;19.40;99.90;;;;;;5033321;28;20049;-49
2023/07/11 05:07:00;;;;;;;4.53;1.17;;;19.40;99.90;;;;;;5033028;28;20400;-49
2023/07/11 05:09:27;;;;;;;5.45;1.30;;;19.40;99.90;;;;;;5032001;28;20084;-51
2023/07/11 05:11:54;;;;;;;5.38;1.27;;;19.40;99.90;;;;;;5033400;28;20045;-48
2023/07/11 05:14:21;;;;;;;5.38;1.45;;;19.40;99.90;;;;;;5032908;28;20041;-47
2023/07/11 05:16:48;;;;;;;4.85;1.25;;;19.40;99.90;;;;;;5033127;28;20378;-49
2023/07/11 05:19:14;;;;;;;6.25;1.23;;;19.40;99.90;;;;;;5032920;28;20033;-46
2023/07/11 05:21:41;;;;;;;4.88;1.20;;;19.40;99.90;;;;;;5033129;28;20050;-51
2023/07/11 05:24:09;;;;;;;4.28;1.40;;;19.30;99.90;;;;;;5032837;28;20041;-48
2023/07/11 05:26:36;;;;;;;4.40;1.38;;;19.30;99.90;;;;;;5033301;28;20116;-50
2023/07/11 05:29:02;;;;;;;3.75;1.13;;;19.30;99.90;;;;;;5031805;28;20048;-53
2023/07/11 05:31:29;;;;;;;5.07;1.50;;;19.20;99.90;;;;;;5033109;28;20484;-50
2023/07/11 05:33:56;;;;;;;5.60;1.45;;;19.20;99.90;;;;;;5032786;28;20096;-49
2023/07/11 05:38:53;;;;;;;3.72;1.17;;;19.10;99.90;;;;;;5032997;28;20056;-49
2023/07/11 05:41:20;;;;;;;3.05;0.88;;;19.10;99.90;;;;;;5031853;28;20136;-51
2023/07/11 05:43:47;;;;;;;5.55;1.58;;;19.10;99.90;;;;;;5032774;28;20038;-47
2023/07/11 05:46:13;;;;;;;6.32;1.20;;;19.00;99.90;;;;;;5032750;28;20049;-47
2023/07/11 05:48:40;;;;;;;4.50;1.35;;;18.90;99.90;;;;;;5032636;28;20045;-51
2023/07/11 05:51:07;;;;;;;3.80;0.95;;;18.90;99.90;;;;;;5032937;28;20052;-49
2023/07/11 05:53:34;;;;;;;2.13;0.80;;;18.90;99.90;;;;;;5032873;28;20042;-49
2023/07/11 05:56:00;;;;;;;2.33;0.80;;;18.90;99.90;;;;;;5032906;28;20046;-53
2023/07/11 05:58:27;;;;;;;2.88;0.73;;;19.00;99.90;;;;;;5032547;28;20131;-50
2023/07/11 06:00:54;;;;;;;2.45;0.95;;;19.20;99.90;;;;;;5035470;28;20607;-53
2023/07/11 06:03:21;;;;;;;1.90;0.70;;;19.40;99.90;;;;;;5035819;28;20841;-50
2023/07/11 06:05:48;;;;;;;2.72;0.90;;;19.60;99.90;;;;;;5036179;28;20072;-52
2023/07/11 06:08:14;;;;;;;2.88;0.75;;;19.70;99.90;;;;;;5036447;28;20042;-52
2023/07/11 06:10:41;;;;;;;1.40;0.73;;;19.80;99.90;;;;;;5034944;28;20055;-46
2023/07/11 06:13:08;;;;;;;2.03;0.70;;;19.80;99.90;;;;;;5036162;28;20046;-50
2023/07/11 06:15:35;;;;;;;2.53;0.70;;;19.90;99.90;;;;;;5035956;28;20049;-48
2023/07/11 06:18:01;;;;;;;2.05;0.73;;;19.80;99.90;;;;;;5035777;28;20048;-50
2023/07/11 06:20:28;;;;;;;2.65;0.98;;;19.70;99.90;;;;;;5034800;28;20041;-47
2023/07/11 06:22:55;;;;;;;5.10;1.10;;;19.70;99.90;;;;;;5035881;28;20048;-48
2023/07/11 06:25:22;;;;;;;3.75;1.35;;;19.50;99.90;;;;;;5035845;28;20473;-52
2023/07/11 06:27:48;;;;;;;4.07;1.25;;;19.40;99.90;;;;;;5035849;28;20405;-52
2023/07/11 06:30:15;;;;;;;3.50;1.20;;;19.40;99.90;;;;;;5035717;28;20041;-48
2023/07/11 06:32:42;;;;;;;3.05;1.30;;;19.40;99.90;;;;;;5035580;28;20037;-51
2023/07/11 06:35:09;;;;;;;2.97;1.10;;;19.50;99.90;;;;;;5034551;28;20048;-48
2023/07/11 06:37:37;;;;;;;2.53;1.20;;;19.50;99.90;;;;;;5035660;28;20125;-46
2023/07/11 06:40:08;;;;;;;3.92;1.30;;;19.60;99.90;;;;;;5035601;28;20041;-49
2023/07/11 06:42:34;;;;;;;3.80;1.48;;;19.80;99.90;;;;;;5035344;28;20045;-46
2023/07/11 06:45:01;;;;;;;5.00;1.33;;;19.90;99.90;;;;;;5035192;28;20054;-48
2023/07/11 06:47:28;;;;;;;3.97;1.40;;;20.10;99.90;;;;;;5035171;28;20386;-51
2023/07/11 06:49:55;;;;;;;4.53;1.65;;;20.20;99.90;;;;;;5035335;28;20399;-46
2023/07/11 06:52:22;;;;;;;5.75;1.48;;;20.30;99.90;;;;;;5035336;28;20133;-47
2023/07/11 06:54:49;;;;;;;5.97;1.58;;;20.40;99.90;;;;;;5035434;28;20373;-49
2023/07/11 06:57:17;;;;;;;6.97;1.60;;;20.50;99.90;;;;;;5033253;28;20037;-51
2023/07/11 06:59:44;;;;;;;5.72;1.67;;;20.50;99.90;;;;;;5035406;28;20129;-52
2023/07/11 07:02:11;;;;;;;5.43;1.42;;;20.60;99.90;;;;;;5034591;28;20120;-49
2023/07/11 07:04:38;;;;;;;5.97;1.63;;;20.60;99.90;;;;;;5034864;28;20041;-51
2023/07/11 07:07:04;;;;;;;4.82;1.35;;;20.50;99.90;;;;;;5034727;28;20068;-48
2023/07/11 07:09:31;;;;;;;3.95;1.70;;;20.50;99.90;;;;;;5030562;28;20449;-46
2023/07/11 07:11:58;;;;;;;4.80;1.70;;;20.50;99.90;;;;;;5032622;28;20061;-53
2023/07/11 07:14:25;;;;;;;5.45;1.58;;;20.40;99.90;;;;;;5034125;28;20369;-50
2023/07/11 07:16:52;;;;;;;6.65;1.40;;;20.40;99.90;;;;;;5034610;28;20077;-50
2023/07/11 07:19:19;;;;;;;4.20;1.50;;;20.50;99.90;;;;;;5032824;28;20046;-45
2023/07/11 07:21:46;;;;;;;7.28;1.70;;;20.50;99.90;;;;;;5034466;28;20458;-51
2023/07/11 07:24:12;;;;;;;5.38;1.50;;;20.50;99.60;;;;;;5034245;28;20042;-51
2023/07/11 07:26:41;;;;;;;6.82;1.80;;;20.50;99.60;;;;;;5034301;28;20500;-47
2023/07/11 07:29:07;;;;;;;8.65;2.08;;;20.40;99.70;;;;;;5034002;28;20052;-49
2023/07/11 07:31:34;;;;;;;6.53;1.50;;;20.40;99.50;;;;;;5034106;28;20739;-47
2023/07/11 07:34:01;;;;;;;5.93;2.15;;;20.50;99.70;;;;;;5033976;28;20100;-50
2023/07/11 07:36:28;;;;;;;5.93;1.90;;;20.60;99.60;;;;;;5030694;28;20050;-45
2023/07/11 07:38:54;;;;;;;5.05;1.67;;;20.70;99.80;;;;;;5033583;28;20678;-50
2023/07/11 07:41:21;;;;;;;5.05;1.70;;;20.70;99.30;;;;;;5032685;28;20476;-47
2023/07/11 07:43:48;;;;;;;8.38;2.17;;;20.70;98.80;;;;;;5033810;28;20041;-50
2023/07/11 07:46:15;;;;;;;5.82;1.98;;;20.70;98.50;;;;;;5032819;28;20053;-48
2023/07/11 07:48:43;;;;;;;5.97;1.85;;;20.80;98.40;;;;;;5033676;28;20038;-50
2023/07/11 07:51:10;;;;;;;6.78;1.67;;;20.90;98.00;;;;;;5033638;28;20041;-48
2023/07/11 07:53:37;;;;;;;6.35;1.80;;;20.90;98.30;;;;;;5032153;28;20053;-49
2023/07/11 07:56:04;;;;;;;5.35;1.65;;;21.00;98.00;;;;;;5033611;28;20045;-49
2023/07/11 07:58:31;;;;;;;8.25;1.85;;;21.10;97.70;;;;;;5033355;28;20050;-47
2023/07/11 08:01:10;;;;;;;6.18;2.15;;;21.10;97.40;;;;;;5033026;28;20037;-52
2023/07/11 08:03:36;;;;;;;7.32;1.98;;;21.20;97.60;;;;;;5033482;28;20037;-49
2023/07/11 08:06:03;;;;;;;10.38;2.03;;;21.20;97.70;;;;;;5033168;28;20061;-46
2023/07/11 08:08:42;;;;;;;6.28;1.60;;;21.30;97.60;;;;;;5033244;28;20069;-49
2023/07/11 08:11:09;;;;;;;6.97;1.85;;;21.40;97.80;;;;;;5033179;28;20045;-47
2023/07/11 08:13:36;;;;;;;5.00;1.70;;;21.40;96.80;;;;;;5033397;28;20068;-48
2023/07/11 08:16:23;;;;;;;5.38;1.90;;;21.50;97.40;;;;;;5033431;28;20408;-51
2023/07/11 08:18:58;;;;;;;6.32;1.80;;;21.50;97.30;;;;;;5032059;28;20091;-51
2023/07/11 08:21:25;;;;;;;7.22;2.20;;;21.60;97.40;;;;;;5032317;28;20488;-51
2023/07/11 08:23:52;;;;;;;7.82;2.28;;;21.60;97.30;;;;;;5033024;28;20045;-52
2023/07/11 08:26:19;;;;;;;6.85;2.30;;;21.80;97.40;;;;;;5033264;28;20069;-48
2023/07/11 08:28:46;;;;;;;6.00;1.85;;;21.80;97.20;;;;;;5032890;28;20384;-51
2023/07/11 08:31:13;;;;;;;5.32;2.15;;;21.90;96.90;;;;;;5032842;28;20045;-49
2023/07/11 08:33:40;;;;;;;6.03;2.13;;;21.90;96.80;;;;;;5031664;28;20030;-52
2023/07/11 08:36:06;;;;;;;7.40;2.53;;;21.90;96.60;;;;;;5032949;28;20512;-50
2023/07/11 08:38:33;;;;;;;8.07;2.33;;;21.80;96.90;;;;;;5032952;28;20045;-51
2023/07/11 08:41:01;;;;;;;7.47;2.28;;;21.80;96.70;;;;;;5032834;28;20040;-48
2023/07/11 08:43:28;;;;;;;5.63;2.60;;;21.90;96.30;;;;;;5032807;28;20057;-48
2023/07/11 08:45:55;;;;;;;7.40;2.20;;;21.90;96.30;;;;;;5033096;28;20069;-48
2023/07/11 08:48:36;;;;;;;7.63;2.65;;;21.90;96.20;;;;;;5033000;28;20037;-48
2023/07/11 08:51:03;;;;;;;7.97;2.55;;;22.00;95.60;;;;;;5032801;28;20424;-49
2023/07/11 08:53:31;;;;;;;9.35;2.80;;;22.00;96.00;;;;;;5032596;28;20089;-53
2023/07/11 08:55:58;;;;;;;7.72;2.38;;;22.10;96.00;;;;;;5032739;28;20049;-50
2023/07/11 08:58:27;;;;;;;7.25;2.35;;;22.10;96.00;;;;;;5032325;28;20050;-48
2023/07/11 09:00:54;;;;;;;7.22;2.38;;;22.20;95.80;;;;;;5027350;28;20052;-49
2023/07/11 09:03:25;;;;;;;8.90;2.60;;;22.30;95.50;;;;;;5032251;28;20050;-51
2023/07/11 09:05:52;;;;;;;7.75;2.45;;;22.30;95.40;;;;;;5031845;28;20107;-50
2023/07/11 09:08:19;;;;;;;9.93;2.65;;;22.30;95.70;;;;;;5032920;28;20053;-48
2023/07/11 09:10:45;;;;;;;8.70;2.60;;;22.40;95.90;;;;;;5029371;28;20050;-48
2023/07/11 09:13:15;;;;;;;10.80;2.75;;;22.50;95.60;;;;;;5031510;28;20107;-45
2023/07/11 09:15:42;;;;;;;6.97;2.03;;;22.40;95.30;;;;;;5032714;28;20044;-47
2023/07/11 09:18:08;;;;;;;6.57;2.45;;;22.40;95.00;;;;;;5033016;28;20535;-50
2023/07/11 09:20:35;;;;;;;9.52;2.53;;;22.40;95.30;;;;;;5032509;28;20515;-51
2023/07/11 09:23:02;;;;;;;7.75;1.90;;;22.40;95.20;;;;;;5032777;28;20060;-47
2023/07/11 09:25:29;;;;;;;7.38;2.70;;;22.40;95.50;;;;;;5032539;28;20046;-49
2023/07/11 09:27:56;;;;;;;9.55;3.92;;;22.60;95.20;;;;;;5032618;28;20049;-51
2023/07/11 09:30:23;;;;;;;6.75;2.00;;;22.60;94.80;;;;;;5031468;28;20091;-51
2023/07/11 09:32:49;;;;;;;6.68;2.10;;;22.70;95.30;;;;;;5032588;28;20033;-49
2023/07/11 09:35:16;;;;;;;9.90;2.10;;;22.80;94.80;;;;;;5032394;28;20041;-53
2023/07/11 09:37:43;;;;;;;5.63;2.00;;;22.90;94.90;;;;;;5036243;28;20112;-48
2023/07/11 09:40:10;;;;;;;6.80;2.08;;;23.00;94.60;;;;;;5034878;28;20041;-47
2023/07/11 09:42:37;;;;;;;8.25;2.28;;;23.00;94.50;;;;;;5036430;28;20073;-47
2023/07/11 09:45:03;;;;;;;6.18;2.17;;;23.00;94.20;;;;;;5035968;28;20049;-45
2023/07/11 09:47:30;;;;;;;7.03;2.05;;;23.00;94.30;;;;;;5036727;28;20041;-46
2023/07/11 09:49:57;;;;;;;102.40;7.13;;;23.10;94.60;;;;;;5036019;28;20538;-50
2023/07/11 09:52:26;;;;;;;6.90;2.08;;;23.10;94.10;;;;;;5036502;28;20427;-46
2023/07/11 09:54:53;;;;;;;6.18;1.88;;;23.10;94.30;;;;;;5035757;28;20045;-47
2023/07/11 09:57:34;;;;;;;7.30;2.00;;;23.10;93.60;;;;;;5036124;28;20052;-48
2023/07/11 10:00:01;;;;;;;4.93;1.85;;;23.00;93.50;;;;;;5036191;28;20072;-49
2023/07/11 10:02:31;;;;;;;9.55;2.40;;;23.00;93.40;;;;;;5036247;28;20089;-47
2023/07/11 10:04:58;;;;;;;5.57;2.10;;;22.90;93.50;;;;;;5034903;28;20072;-46
2023/07/11 10:07:28;;;;;;;6.13;1.90;;;23.00;93.00;;;;;;5035586;28;20120;-46
2023/07/11 10:09:55;;;;;;;8.00;2.20;;;23.00;93.50;;;;;;5036346;28;20386;-50
2023/07/11 10:12:21;;;;;;;6.18;1.65;;;23.10;93.50;;;;;;5035498;28;20038;-48
2023/07/11 10:14:48;;;;;;;6.72;2.10;;;23.20;93.40;;;;;;5035025;28;20033;-45
2023/07/11 10:17:15;;;;;;;8.55;2.33;;;23.10;93.20;;;;;;5034163;28;20042;-46
2023/07/11 10:19:42;;;;;;;6.28;2.20;;;23.10;93.30;;;;;;5036002;28;20033;-49
2023/07/11 10:22:09;;;;;;;4.82;1.85;;;23.10;93.40;;;;;;5035793;28;20092;-46
2023/07/11 10:24:36;;;;;;;7.35;2.17;;;23.20;93.20;;;;;;5028781;28;20045;-46
2023/07/11 10:27:02;;;;;;;6.68;2.58;;;23.30;92.80;;;;;;5035859;28;20042;-46
2023/07/11 10:29:29;;;;;;;6.55;1.73;;;23.50;92.00;;;;;;5035346;28;20045;-51
2023/07/11 10:31:56;;;;;;;5.70;1.75;;;23.60;92.30;;;;;;5035330;28;20033;-47
2023/07/11 10:34:23;;;;;;;6.50;1.90;;;23.60;92.00;;;;;;5035539;28;20037;-45
2023/07/11 10:36:50;;;;;;;7.45;2.00;;;23.80;92.20;;;;;;5034799;28;20037;-49
2023/07/11 10:39:17;;;;;;;4.57;1.70;;;24.00;91.60;;;;;;5035279;28;20038;-47
2023/07/11 10:41:43;;;;;;;5.22;1.60;;;24.10;91.30;;;;;;5035242;28;20461;-48
2023/07/11 10:44:11;;;;;;;6.50;1.77;;;24.10;91.10;;;;;;5034046;28;20034;-47
2023/07/11 10:46:37;;;;;;;7.43;2.10;;;24.20;91.00;;;;;;5034403;28;20444;-48
2023/07/11 10:49:06;;;;;;;6.50;2.22;;;24.30;91.10;;;;;;5035482;28;20042;-49
2023/07/11 10:51:33;;;;;;;6.75;2.17;;;24.50;90.90;;;;;;5035310;28;20041;-51
2023/07/11 10:53:59;;;;;;;7.25;2.25;;;24.60;90.90;;;;;;5021851;28;20456;-49
2023/07/11 10:56:26;;;;;;;5.95;2.17;;;24.70;91.10;;;;;;5033601;28;20488;-53
2023/07/11 10:58:53;;;;;;;6.20;2.08;;;24.80;91.00;;;;;;5034537;28;20045;-52
2023/07/11 11:01:20;;;;;;;8.32;2.00;;;24.70;90.70;;;;;;5035040;28;20041;-50
2023/07/11 11:03:47;;;;;;;6.25;1.80;;;24.70;90.90;;;;;;5034916;28;20038;-48
2023/07/11 11:06:13;;;;;;;4.40;1.52;;;24.80;91.10;;;;;;5034536;28;20128;-52
2023/07/11 11:08:40;;;;;;;5.10;2.00;;;24.80;90.50;;;;;;5034416;28;20037;-52
2023/07/11 11:11:07;;;;;;;5.30;1.88;;;24.80;91.10;;;;;;5034739;28;20121;-48
2023/07/11 11:13:35;;;;;;;6.63;1.88;;;24.80;90.40;;;;;;5034562;28;20562;-47
2023/07/11 11:16:02;;;;;;;6.00;2.22;;;24.70;90.40;;;;;;5034921;28;20092;-50
2023/07/11 11:18:29;;;;;;;8.25;2.03;;;24.70;90.40;;;;;;5034180;28;20063;-48
2023/07/11 11:20:56;;;;;;;7.93;2.10;;;24.80;90.30;;;;;;5034690;28;20069;-48
2023/07/11 11:23:42;;;;;;;6.40;1.73;;;24.90;90.00;;;;;;5034594;28;20052;-50
2023/07/11 11:26:09;;;;;;;5.85;1.92;;;25.20;90.00;;;;;;5034518;28;20398;-49
2023/07/11 11:28:36;;;;;;;6.90;1.90;;;25.30;88.80;;;;;;5034494;28;20104;-52
2023/07/11 11:31:03;;;;;;;6.57;2.25;;;25.50;88.60;;;;;;5033936;28;20045;-51
2023/07/11 11:33:30;;;;;;;4.97;1.90;;;25.60;89.30;;;;;;5034616;28;20116;-52
2023/07/11 11:35:56;;;;;;;7.60;2.10;;;25.60;88.50;;;;;;5034131;28;20049;-49
2023/07/11 11:38:24;;;;;;;11.93;2.15;;;25.70;89.00;;;;;;5034275;28;20073;-48
2023/07/11 11:40:51;;;;;;;7.20;2.10;;;25.80;88.20;;;;;;5034040;28;20033;-50
2023/07/11 11:43:19;;;;;;;6.90;2.13;;;25.80;88.40;;;;;;5034164;28;20099;-50
2023/07/11 11:45:50;;;;;;;6.78;2.20;;;26.00;87.90;;;;;;5033490;28;20053;-50
2023/07/11 11:48:20;;;;;;;8.77;2.10;;;26.00;87.80;;;;;;5034164;28;20042;-49
2023/07/11 11:50:50;;;;;;;6.70;2.10;;;26.00;87.90;;;;;;5033506;28;20037;-51
2023/07/11 11:53:19;;;;;;;5.97;2.03;;;26.00;87.90;;;;;;5033724;28;20037;-49
2023/07/11 11:55:46;;;;;;;8.00;2.25;;;26.10;87.60;;;;;;5034041;28;20045;-49
2023/07/11 11:58:13;;;;;;;8.57;2.05;;;26.10;86.50;;;;;;5032604;28;20500;-49
2023/07/11 12:00:40;;;;;;;7.72;1.80;;;26.10;87.10;;;;;;5033838;28;20048;-53
2023/07/11 12:03:06;;;;;;;6.38;2.30;;;26.20;87.10;;;;;;5033214;28;20447;-50
2023/07/11 12:05:33;;;;;;;8.57;2.35;;;26.20;87.00;;;;;;5033766;28;20072;-46
2023/07/11 12:08:00;;;;;;;7.63;2.20;;;26.20;87.20;;;;;;5033981;28;20404;-49
2023/07/11 12:10:27;;;;;;;7.35;1.95;;;26.30;87.20;;;;;;5033784;28;20037;-46
2023/07/11 12:12:54;;;;;;;6.30;2.05;;;26.30;86.80;;;;;;5033843;28;20412;-45
2023/07/11 12:15:21;;;;;;;7.28;2.22;;;26.30;86.50;;;;;;5033837;28;20033;-47
2023/07/11 12:17:49;;;;;;;5.93;2.10;;;26.40;86.90;;;;;;5033640;28;20120;-47
2023/07/11 12:20:17;;;;;;;6.47;2.33;;;26.40;86.90;;;;;;5033516;28;20064;-48
2023/07/11 12:22:44;;;;;;;8.15;2.20;;;26.50;87.30;;;;;;5033490;28;20041;-49
2023/07/11 12:25:10;;;;;;;6.78;2.10;;;26.70;86.20;;;;;;5033344;28;20055;-46
2023/07/11 12:27:37;;;;;;;5.93;2.13;;;26.60;86.30;;;;;;5033326;28;20477;-51
2023/07/11 12:30:04;;;;;;;5.63;2.03;;;26.60;86.50;;;;;;5033155;28;20412;-46
2023/07/11 12:32:31;;;;;;;7.22;2.47;;;26.70;86.80;;;;;;5033236;28;20041;-51
2023/07/11 12:34:58;;;;;;;7.30;2.50;;;26.50;86.40;;;;;;5034101;28;20041;-48
2023/07/11 12:37:25;;;;;;;6.97;2.35;;;26.30;86.80;;;;;;5033360;28;20041;-48
2023/07/11 12:39:51;;;;;;;6.32;1.90;;;26.20;87.30;;;;;;5033834;28;20116;-51
2023/07/11 12:42:18;;;;;;;6.85;2.20;;;26.00;87.00;;;;;;5032554;28;20038;-46
2023/07/11 12:44:48;;;;;;;6.15;2.17;;;25.90;86.90;;;;;;5032025;28;20038;-47
2023/07/11 12:47:14;;;;;;;5.25;1.92;;;25.80;87.10;;;;;;5032189;28;20128;-50